Time;durP1;ratioP1;P1;durP2;ratioP2;P2;SDS_P1;SDS_P2;PMS_P1;PMS_P2;Temp;Humidity;BMP_temperature;BMP_pressure;BME280_temperature;BME280_humidity;BME280_pressure;Samples;Min_cycle;Max_cycle;Signal;HPM_P1;HPM_P2
2021/08/08 00:01:55;;;;;;;5.93;1.90;;;16.60;99.90;;;15.52;99.59;100124.25;5030235;28;20029;-74
2021/08/08 00:04:22;;;;;;;4.75;1.58;;;16.60;99.90;;;15.57;98.97;100127.41;5029967;28;20033;-74
2021/08/08 00:06:49;;;;;;;6.68;1.85;;;16.70;99.90;;;15.72;97.75;100151.97;5029913;28;20393;-74
2021/08/08 00:09:15;;;;;;;2.13;1.48;;;16.80;99.90;;;15.82;96.50;100160.03;5014217;28;20037;-74
2021/08/08 00:11:42;;;;;;;3.85;1.88;;;16.90;99.90;;;15.84;95.87;100162.59;5029838;28;20078;-74
2021/08/08 00:14:08;;;;;;;2.97;1.58;;;16.90;99.90;;;15.82;96.30;100148.59;5031594;28;20402;-74
2021/08/08 00:16:35;;;;;;;2.97;1.55;;;16.90;99.90;;;15.82;95.76;100146.75;5006045;28;20033;-75
2021/08/08 00:19:02;;;;;;;4.45;1.70;;;16.90;99.90;;;15.83;95.52;100136.97;5022626;28;20068;-73
2021/08/08 00:21:28;;;;;;;3.85;1.50;;;16.90;99.90;;;15.83;95.62;100131.69;5031172;28;20100;-74
2021/08/08 00:23:54;;;;;;;7.03;2.00;;;16.90;99.90;;;15.82;95.50;100117.56;5029654;28;20034;-74
2021/08/08 00:26:20;;;;;;;7.57;1.77;;;16.90;99.90;;;15.85;95.68;100127.09;5029548;28;20021;-75
2021/08/08 00:28:48;;;;;;;5.60;1.90;;;16.90;99.90;;;15.84;95.82;100120.13;5028665;28;20029;-74
2021/08/08 00:31:20;;;;;;;6.25;1.80;;;16.90;99.90;;;15.84;96.42;100125.41;5031614;28;20044;-74
2021/08/08 00:33:46;;;;;;;3.50;1.85;;;16.90;99.90;;;15.79;96.47;100126.63;5029143;28;20120;-75
2021/08/08 00:36:12;;;;;;;4.03;1.70;;;16.90;99.90;;;15.86;96.81;100137.59;5027090;28;20476;-74
2021/08/08 00:38:38;;;;;;;5.03;1.65;;;16.90;99.90;;;15.81;96.95;100133.59;5012887;28;20465;-74
2021/08/08 00:41:04;;;;;;;4.50;1.77;;;16.90;99.90;;;15.77;97.13;100128.53;5030280;28;20025;-75
2021/08/08 00:43:30;;;;;;;6.78;1.73;;;16.90;99.90;;;15.73;98.18;100119.13;5014031;28;20424;-74
2021/08/08 00:45:56;;;;;;;5.25;2.33;;;16.90;99.90;;;15.72;98.38;100178.50;5028468;28;20029;-75
2021/08/08 00:48:22;;;;;;;4.15;2.20;;;16.80;99.90;;;15.71;99.15;100134.31;5028485;28;20393;-74
2021/08/08 00:50:48;;;;;;;4.35;1.98;;;16.80;99.90;;;15.68;99.31;100121.28;5028349;28;20029;-74
2021/08/08 00:53:14;;;;;;;2.42;1.60;;;16.90;99.90;;;15.66;98.59;100123.19;5022806;28;20450;-74
2021/08/08 00:55:40;;;;;;;5.60;1.83;;;16.80;99.90;;;15.61;98.98;100117.38;5012968;28;20941;-74
2021/08/08 00:58:06;;;;;;;5.40;1.83;;;16.70;99.90;;;15.63;99.65;100125.25;5028595;28;20065;-74
2021/08/08 01:00:33;;;;;;;4.35;1.92;;;16.80;99.90;;;15.65;99.33;100134.75;5030507;28;20170;-74
2021/08/08 01:03:04;;;;;;;4.88;1.80;;;16.70;99.90;;;15.58;99.55;100133.56;5029442;28;20037;-74
2021/08/08 01:05:40;;;;;;;3.35;1.95;;;16.70;99.90;;;15.54;99.79;100124.13;5012763;28;20527;-74
2021/08/08 01:08:11;;;;;;;2.95;2.00;;;16.60;99.90;;;15.57;100.00;100131.84;5029706;28;20028;-75
2021/08/08 01:10:40;;;;;;;6.22;2.53;;;16.60;99.90;;;15.55;100.00;100134.66;5030012;28;20076;-74
2021/08/08 01:13:09;;;;;;;4.85;2.08;;;16.60;99.90;;;15.49;100.00;100209.41;5027454;28;20037;-74
2021/08/08 01:15:36;;;;;;;3.50;2.20;;;16.60;99.90;;;15.46;100.00;100232.66;5029903;28;20028;-75
2021/08/08 01:18:02;;;;;;;5.00;2.30;;;16.50;99.90;;;15.42;100.00;100244.44;5012102;28;20037;-75
2021/08/08 01:20:29;;;;;;;4.50;2.40;;;16.50;99.90;;;15.38;100.00;100249.16;5013899;28;20033;-74
2021/08/08 01:23:03;;;;;;;3.13;2.17;;;16.40;99.90;;;15.37;100.00;100268.66;5029559;28;20396;-75
2021/08/08 01:25:31;;;;;;;7.05;2.15;;;16.50;99.90;;;15.34;100.00;100312.19;5028374;28;20029;-74
2021/08/08 01:28:01;;;;;;;4.13;2.25;;;16.40;99.90;;;15.32;100.00;100306.16;5009768;28;20056;-74
2021/08/08 01:30:28;;;;;;;4.10;2.88;;;16.40;99.90;;;15.27;100.00;100361.34;5029118;28;20098;-75
2021/08/08 01:33:07;;;;;;;4.63;2.30;;;16.30;99.90;;;15.26;100.00;100399.44;5029019;28;20044;-73
2021/08/08 01:35:33;;;;;;;4.47;2.67;;;16.30;99.90;;;15.25;100.00;100408.34;5029085;28;20107;-73
2021/08/08 01:38:00;;;;;;;5.57;2.67;;;16.30;99.90;;;15.20;100.00;100415.78;5045753;28;20049;-74
2021/08/08 01:40:51;;;;;;;4.28;2.42;;;16.30;99.90;;;15.13;100.00;100471.06;5029122;28;20036;-74
2021/08/08 01:43:24;;;;;;;3.70;2.30;;;16.20;99.90;;;15.08;100.00;100467.03;5036603;28;20488;-74
2021/08/08 01:45:52;;;;;;;6.28;2.42;;;16.20;99.90;;;15.02;100.00;100496.63;5029265;28;20049;-73
2021/08/08 01:48:21;;;;;;;4.95;2.53;;;16.10;99.90;;;14.94;100.00;100500.63;5019649;28;20053;-75
2021/08/08 01:50:47;;;;;;;8.43;2.88;;;16.10;99.90;;;14.92;100.00;100544.13;5030815;28;20021;-74
2021/08/08 01:53:14;;;;;;;2.90;2.35;;;16.00;99.90;;;14.87;100.00;100547.06;5028916;28;20108;-75
2021/08/08 01:55:40;;;;;;;3.65;2.60;;;16.00;99.90;;;14.85;100.00;100566.69;5029750;28;20022;-75
2021/08/08 01:58:07;;;;;;;6.45;2.75;;;15.90;99.90;;;14.81;100.00;100579.28;5028416;28;20416;-74
2021/08/08 02:00:33;;;;;;;6.32;2.45;;;15.90;99.90;;;14.83;100.00;100621.59;5010146;28;20032;-74
2021/08/08 02:02:59;;;;;;;3.60;2.72;;;15.90;99.90;;;14.79;100.00;100636.84;5030244;28;20110;-75
2021/08/08 02:05:29;;;;;;;7.93;3.10;;;15.90;99.90;;;14.79;100.00;100683.72;5021438;28;20028;-74
2021/08/08 02:07:56;;;;;;;6.50;2.95;;;15.90;99.90;;;14.75;100.00;100667.16;5020707;28;20021;-74
2021/08/08 02:10:22;;;;;;;5.57;2.90;;;15.80;99.90;;;14.75;100.00;100680.41;5027959;28;20036;-75
2021/08/08 02:12:48;;;;;;;5.28;3.00;;;15.80;99.90;;;14.68;100.00;100714.41;5023994;28;20024;-75
2021/08/08 02:15:15;;;;;;;4.57;2.65;;;15.80;99.90;;;14.61;100.00;100722.88;5029577;28;20076;-75
2021/08/08 02:17:42;;;;;;;4.25;2.78;;;15.70;99.90;;;14.58;100.00;100723.91;5010715;28;20366;-75
2021/08/08 02:20:15;;;;;;;5.25;2.90;;;15.70;99.90;;;14.52;100.00;100748.97;5029352;28;20025;-74
2021/08/08 02:22:43;;;;;;;6.68;3.10;;;15.60;99.90;;;14.50;100.00;100779.16;5030345;28;20112;-75
2021/08/08 02:25:10;;;;;;;3.97;2.80;;;15.60;99.90;;;14.44;100.00;100782.19;5016859;28;20040;-75
2021/08/08 02:27:36;;;;;;;9.07;3.20;;;15.50;99.90;;;14.38;100.00;100795.78;5041390;28;20064;-75
2021/08/08 02:30:08;;;;;;;6.20;3.08;;;15.50;99.90;;;14.36;100.00;100825.00;5025929;28;20357;-75
2021/08/08 02:32:35;;;;;;;5.18;2.63;;;15.50;99.90;;;14.30;100.00;100825.41;5048809;28;20032;-75
2021/08/08 02:35:01;;;;;;;4.38;2.70;;;15.40;99.90;;;14.18;100.00;100839.38;5029090;28;20044;-76
2021/08/08 02:37:27;;;;;;;3.90;3.10;;;15.30;99.90;;;14.13;100.00;100856.41;5032789;28;20376;-75
2021/08/08 02:39:54;;;;;;;5.80;2.95;;;15.30;99.90;;;14.11;100.00;100855.63;5027506;28;20048;-75
2021/08/08 02:42:20;;;;;;;11.70;3.28;;;15.30;99.90;;;14.10;100.00;100888.38;5031796;28;20143;-74
2021/08/08 02:44:46;;;;;;;4.65;3.20;;;15.30;99.90;;;14.19;100.00;100909.94;5032562;28;20244;-75
2021/08/08 02:47:12;;;;;;;7.10;3.15;;;15.30;99.90;;;14.20;100.00;100863.97;5013773;28;20096;-75
2021/08/08 02:49:38;;;;;;;11.18;3.40;;;15.30;99.90;;;14.23;100.00;100858.50;5025298;28;20029;-75
2021/08/08 02:52:04;;;;;;;6.18;3.67;;;15.40;99.90;;;14.26;100.00;100900.69;5032544;28;20094;-75
2021/08/08 02:54:31;;;;;;;6.28;3.40;;;15.40;99.90;;;14.25;100.00;100923.66;5031716;28;20017;-75
2021/08/08 02:56:57;;;;;;;6.05;3.50;;;15.40;99.90;;;14.27;100.00;100952.72;5031871;28;20014;-74
2021/08/08 02:59:23;;;;;;;9.27;3.67;;;15.40;99.90;;;14.37;100.00;100964.47;5030797;28;20048;-74
2021/08/08 03:01:49;;;;;;;5.68;3.90;;;15.50;99.90;;;14.39;100.00;100997.03;5032563;28;20517;-75
2021/08/08 03:04:15;;;;;;;8.05;3.70;;;15.60;99.90;;;14.40;100.00;100961.63;5029011;28;20025;-75
2021/08/08 03:06:48;;;;;;;7.63;3.60;;;15.60;99.90;;;14.43;100.00;100923.53;5031773;28;20159;-75
2021/08/08 03:09:14;;;;;;;8.02;3.50;;;15.50;99.90;;;14.38;100.00;100960.03;5046990;28;20021;-75
2021/08/08 03:11:46;;;;;;;8.52;3.10;;;15.50;99.90;;;14.35;100.00;101049.34;5017031;28;20109;-75
2021/08/08 03:14:17;;;;;;;7.18;3.10;;;15.50;99.90;;;14.29;100.00;101038.22;5023985;28;20075;-73
2021/08/08 03:16:45;;;;;;;9.00;3.55;;;15.50;99.90;;;14.30;100.00;101092.94;5047425;28;20080;-74
2021/08/08 03:19:12;;;;;;;12.90;3.47;;;15.40;99.90;;;14.26;100.00;101097.53;5013368;28;20123;-75
2021/08/08 03:21:40;;;;;;;5.25;2.75;;;15.40;99.90;;;14.21;100.00;101104.03;5037609;28;20025;-76
2021/08/08 03:24:06;;;;;;;6.93;2.85;;;15.30;99.90;;;14.11;100.00;101115.13;5049261;28;20036;-75
2021/08/08 03:26:33;;;;;;;6.15;3.10;;;15.20;99.90;;;14.06;100.00;101122.50;5032951;28;20028;-75
2021/08/08 03:29:00;;;;;;;7.13;3.50;;;15.20;99.90;;;14.02;100.00;101120.09;5022852;28;20047;-75
2021/08/08 03:31:27;;;;;;;5.55;3.15;;;15.10;99.90;;;13.95;100.00;101153.97;5016077;28;20029;-75
2021/08/08 03:33:55;;;;;;;6.28;3.13;;;15.10;99.90;;;13.88;100.00;101149.94;5028965;28;20456;-75
2021/08/08 03:36:22;;;;;;;8.02;3.35;;;15.00;99.90;;;13.83;100.00;101167.88;5031163;28;20027;-75
2021/08/08 03:38:49;;;;;;;11.00;3.50;;;15.00;99.90;;;13.81;100.00;101215.59;5013983;28;20038;-75
2021/08/08 03:41:16;;;;;;;7.18;3.90;;;15.00;99.90;;;13.85;100.00;101213.66;5030419;28;20033;-75
2021/08/08 03:43:42;;;;;;;6.72;3.60;;;15.00;99.90;;;13.87;100.00;101201.19;5014250;28;20029;-75
2021/08/08 03:46:08;;;;;;;12.23;3.45;;;15.10;99.90;;;13.92;100.00;101223.81;5015039;28;20043;-75
2021/08/08 03:48:34;;;;;;;5.10;3.58;;;15.20;99.90;;;13.96;100.00;101274.81;5013605;28;20033;-76
2021/08/08 03:51:00;;;;;;;10.23;4.20;;;15.20;99.90;;;14.02;100.00;101277.16;5029196;28;20033;-75
2021/08/08 03:53:26;;;;;;;5.93;4.07;;;15.20;99.90;;;14.08;100.00;101299.78;5031817;28;20044;-75
2021/08/08 03:55:52;;;;;;;6.93;4.20;;;15.30;99.90;;;14.14;100.00;101332.09;5021765;28;20031;-75
2021/08/08 03:58:18;;;;;;;6.18;4.30;;;15.30;99.90;;;14.18;100.00;101289.59;5031631;28;20037;-75
2021/08/08 04:00:44;;;;;;;7.55;3.83;;;15.30;99.90;;;14.18;100.00;101331.97;5030546;28;20079;-75
2021/08/08 04:03:10;;;;;;;7.13;3.60;;;15.30;99.90;;;14.12;100.00;101344.59;5037384;28;20443;-75
2021/08/08 04:05:36;;;;;;;6.93;3.83;;;15.30;99.90;;;14.09;100.00;101355.34;5006866;28;20035;-75
2021/08/08 04:08:03;;;;;;;5.63;3.47;;;15.20;99.90;;;14.09;100.00;101335.94;5042174;28;20025;-75
2021/08/08 04:10:29;;;;;;;8.43;3.80;;;15.30;99.90;;;14.09;100.00;101389.75;5029939;28;21155;-75
2021/08/08 04:12:55;;;;;;;6.80;3.60;;;15.30;99.90;;;14.15;100.00;101389.44;5031503;28;20028;-75
2021/08/08 04:15:21;;;;;;;6.80;3.50;;;15.40;99.90;;;14.24;100.00;101405.81;5014527;28;20072;-75
2021/08/08 04:17:47;;;;;;;9.48;3.83;;;15.40;99.90;;;14.39;100.00;101446.56;5029699;28;20063;-74
2021/08/08 04:20:13;;;;;;;9.57;4.40;;;15.50;99.90;;;14.51;100.00;101437.97;5029493;28;20025;-74
2021/08/08 04:22:39;;;;;;;6.88;4.18;;;15.70;99.90;;;14.73;100.00;101501.38;5031680;28;20061;-75
2021/08/08 04:25:05;;;;;;;10.15;4.47;;;16.10;99.90;;;15.34;100.00;101529.94;5030968;28;23106;-75
2021/08/08 04:27:31;;;;;;;8.98;3.90;;;16.90;99.90;;;16.31;100.00;101577.75;5029028;28;20473;-75
2021/08/08 04:29:57;;;;;;;4.63;2.83;;;17.70;99.90;;;17.14;97.07;101535.63;5033396;28;20023;-75
2021/08/08 04:32:25;;;;;;;3.75;2.42;;;18.30;99.90;;;17.30;94.00;101498.28;5026797;28;20082;-75
2021/08/08 04:34:51;;;;;;;7.53;2.50;;;18.40;99.90;;;17.48;93.09;101492.75;5030697;28;20013;-75
2021/08/08 04:37:17;;;;;;;6.60;2.75;;;18.50;99.90;;;17.60;91.84;101482.16;5012035;28;20104;-76
2021/08/08 04:39:43;;;;;;;5.18;2.08;;;18.70;99.90;;;17.95;89.88;101504.84;5043667;28;20037;-74
2021/08/08 04:42:09;;;;;;;4.63;2.50;;;18.80;99.90;;;17.87;89.53;101469.84;5033760;28;20076;-75
2021/08/08 04:44:35;;;;;;;4.55;2.35;;;18.80;99.90;;;17.81;89.79;101447.94;5030851;28;20094;-74
2021/08/08 04:47:01;;;;;;;5.82;2.20;;;;;;;17.46;91.28;101404.13;5029013;28;20037;-76
2021/08/08 04:49:27;;;;;;;4.60;2.28;;;18.20;99.90;;;17.16;93.54;101359.91;5027913;28;20029;-75
2021/08/08 04:51:53;;;;;;;6.20;2.47;;;18.40;99.90;;;17.71;92.01;101432.66;5027873;28;20108;-75
2021/08/08 04:54:19;;;;;;;7.57;2.20;;;19.00;99.90;;;18.29;88.71;101486.59;5022869;28;20510;-75
2021/08/08 04:56:45;;;;;;;7.35;2.08;;;19.40;99.90;;;18.68;85.64;101504.38;5035769;28;20033;-75
2021/08/08 04:59:12;;;;;;;3.50;2.03;;;19.70;99.90;;;18.93;84.54;101508.06;5027137;28;20076;-75
2021/08/08 05:01:39;;;;;;;6.28;2.10;;;20.00;99.90;;;19.06;82.99;101475.06;5026557;28;20029;-75
2021/08/08 05:04:07;;;;;;;3.95;2.08;;;20.20;99.90;;;19.51;80.78;101503.09;5029385;28;20044;-75
2021/08/08 05:06:34;;;;;;;3.70;1.90;;;20.40;99.90;;;19.66;80.19;101496.66;5038025;28;20532;-75
2021/08/08 05:09:02;;;;;;;8.70;2.05;;;20.70;99.90;;;20.30;78.25;101552.53;5035554;28;20036;-75
2021/08/08 05:11:28;;;;;;;2.30;1.65;;;21.00;99.90;;;20.33;77.09;101522.06;5010547;28;20029;-75
2021/08/08 05:13:54;;;;;;;4.32;1.90;;;21.20;99.90;;;20.41;76.20;101517.84;5045150;28;20036;-75
2021/08/08 05:16:20;;;;;;;5.88;2.10;;;21.40;99.90;;;20.56;75.17;101501.56;5030175;28;20029;-75
2021/08/08 05:18:46;;;;;;;3.95;1.80;;;20.80;99.90;;;19.42;79.29;101366.59;5029480;28;20095;-75
2021/08/08 05:21:12;;;;;;;5.10;2.15;;;19.90;99.90;;;18.64;83.07;101279.69;5030183;28;20091;-75
2021/08/08 05:23:39;;;;;;;4.22;1.90;;;19.30;99.90;;;18.38;86.08;101286.03;5046386;28;20171;-75
2021/08/08 05:26:05;;;;;;;4.32;1.90;;;19.50;99.90;;;18.96;83.86;101535.41;5030133;28;20530;-75
2021/08/08 05:28:31;;;;;;;6.85;2.03;;;20.10;99.90;;;19.49;80.34;101145.31;5028725;28;20528;-75
2021/08/08 05:30:58;;;;;;;4.68;2.10;;;20.70;99.90;;;20.37;76.89;101199.94;5021571;28;20492;-75
2021/08/08 05:33:24;;;;;;;3.28;1.92;;;21.20;99.90;;;20.80;74.84;101153.63;5045653;28;20025;-75
2021/08/08 05:35:52;;;;;;;3.35;2.00;;;21.50;99.90;;;21.06;73.44;101163.00;5028487;28;20044;-75
2021/08/08 05:38:19;;;;;;;6.45;2.20;;;21.90;99.90;;;21.79;71.26;101227.41;5029211;28;20447;-76
2021/08/08 05:40:45;;;;;;;8.45;2.00;;;21.80;99.90;;;21.31;71.91;101161.75;5029124;28;20025;-74
2021/08/08 05:43:11;;;;;;;4.88;1.92;;;22.20;99.90;;;22.03;69.42;101240.53;5011461;28;20163;-75
2021/08/08 05:45:37;;;;;;;5.95;1.95;;;22.40;99.90;;;21.97;68.69;101242.88;5012501;28;20710;-76
2021/08/08 05:48:03;;;;;;;5.15;1.90;;;22.80;99.90;;;22.76;66.09;101287.84;5027762;28;20045;-76
2021/08/08 05:50:29;;;;;;;4.45;1.80;;;22.50;99.90;;;21.24;69.46;101108.88;5030538;28;20025;-76
2021/08/08 05:52:55;;;;;;;4.55;1.85;;;21.00;99.90;;;19.67;75.67;102252.69;5028202;28;20018;-76
2021/08/08 05:55:22;;;;;;;7.47;1.77;;;20.00;99.90;;;18.93;80.00;101470.72;5010821;28;20542;-75
2021/08/08 05:57:47;;;;;;;5.47;2.08;;;19.50;99.90;;;18.48;82.53;101483.56;5025128;28;20033;-75
2021/08/08 06:00:14;;;;;;;6.32;2.22;;;19.10;99.90;;;18.19;84.03;101508.56;5045389;28;20025;-75
2021/08/08 06:02:39;;;;;;;6.68;2.00;;;18.90;99.90;;;18.16;85.16;101274.22;5036705;28;20457;-75
2021/08/08 06:05:06;;;;;;;4.60;2.30;;;19.60;99.90;;;19.64;79.71;101308.91;5031796;28;20033;-76
2021/08/08 06:07:32;;;;;;;4.40;1.70;;;20.80;99.90;;;20.90;73.73;101259.78;5016444;28;20033;-76
2021/08/08 06:10:01;;;;;;;2.67;1.63;;;21.80;99.90;;;21.77;68.83;101081.09;5015298;28;20024;-75
2021/08/08 06:12:28;;;;;;;8.77;1.63;;;22.60;99.90;;;22.67;65.08;101091.72;5033253;28;20021;-75
2021/08/08 06:14:54;;;;;;;3.30;1.55;;;23.30;99.90;;;23.40;62.23;101123.47;5006094;28;20186;-76
2021/08/08 06:17:20;;;;;;;4.05;1.77;;;23.40;99.90;;;23.06;62.31;101089.03;5031717;28;20030;-75
2021/08/08 06:19:46;;;;;;;2.40;1.70;;;23.50;99.90;;;23.22;62.21;101076.84;5017381;28;20197;-76
2021/08/08 06:22:13;;;;;;;3.92;1.65;;;23.10;99.90;;;22.53;63.13;101003.63;5013744;28;20374;-73
2021/08/08 06:24:41;;;;;;;4.60;1.98;;;22.90;99.90;;;22.77;63.45;101048.78;5033573;28;20083;-75
2021/08/08 06:27:08;;;;;;;3.92;1.92;;;22.80;99.90;;;22.22;63.87;100979.59;5025095;28;20020;-77
2021/08/08 06:29:34;;;;;;;3.30;1.52;;;23.00;99.90;;;22.88;62.15;101029.00;5015310;28;20401;-76
2021/08/08 06:32:00;;;;;;;6.07;1.88;;;23.30;99.90;;;23.58;60.03;101099.38;5033916;28;20036;-75
2021/08/08 06:34:26;;;;;;;5.13;2.00;;;23.30;99.90;;;22.96;61.14;101004.09;5024160;28;20036;-77
2021/08/08 06:36:52;;;;;;;5.70;1.65;;;23.10;99.90;;;22.91;62.22;101004.53;5009086;28;20044;-74
2021/08/08 06:39:18;;;;;;;5.40;2.08;;;23.60;99.90;;;23.49;59.26;101033.06;5023957;28;20068;-75
2021/08/08 06:41:44;;;;;;;6.03;1.63;;;23.40;99.90;;;23.65;58.81;101060.19;5017918;28;20033;-76
2021/08/08 06:44:10;;;;;;;10.13;2.38;;;23.50;99.90;;;23.17;59.50;100994.03;5033010;28;20389;-75
2021/08/08 06:46:36;;;;;;;6.60;1.90;;;22.90;99.90;;;22.06;62.19;100890.81;5025159;28;20044;-75
2021/08/08 06:49:02;;;;;;;4.93;1.90;;;22.20;99.90;;;21.90;63.76;100921.72;5007075;28;20029;-76
2021/08/08 06:51:28;;;;;;;5.90;2.05;;;22.50;99.90;;;22.62;61.43;100991.19;5024437;28;20428;-75
2021/08/08 06:53:54;;;;;;;3.28;1.80;;;22.80;99.90;;;22.72;60.49;101002.72;5015727;28;20120;-76
2021/08/08 06:56:20;;;;;;;12.15;2.17;;;23.10;99.90;;;23.44;59.03;101071.16;5006259;28;20029;-76
2021/08/08 06:58:46;;;;;;;3.33;1.45;;;23.40;99.90;;;23.20;58.26;101017.91;5021797;28;20049;-76
2021/08/08 07:01:17;;;;;;;4.13;1.63;;;23.00;99.90;;;22.68;59.79;100969.13;5036789;28;20476;-76
2021/08/08 07:03:43;;;;;;;5.22;1.77;;;23.00;99.90;;;23.12;58.55;101024.00;5017465;28;20396;-76
2021/08/08 07:06:09;;;;;;;7.65;2.15;;;23.60;99.90;;;24.08;56.04;101103.56;5032369;28;20082;-76
2021/08/08 07:08:35;;;;;;;6.90;1.52;;;24.20;99.90;;;24.52;54.34;101118.03;5022953;28;20039;-77
2021/08/08 07:11:01;;;;;;;3.78;1.85;;;24.00;99.90;;;24.04;54.53;101040.28;5032604;28;20025;-76
2021/08/08 07:13:27;;;;;;;6.68;2.05;;;23.80;99.90;;;23.74;55.52;101010.03;5031871;28;20507;-76
2021/08/08 07:15:53;;;;;;;6.75;1.58;;;23.00;99.90;;;22.16;59.69;100872.91;5032798;28;20025;-76
2021/08/08 07:18:19;;;;;;;2.78;1.08;;;22.70;99.90;;;23.06;58.26;100991.53;5046987;28;20562;-76
2021/08/08 07:20:45;;;;;;;4.82;1.35;;;23.20;99.90;;;23.71;56.15;101042.59;5010347;28;20427;-76
2021/08/08 07:23:11;;;;;;;2.83;1.40;;;23.60;99.90;;;24.05;55.46;101050.06;5019763;28;20480;-76
2021/08/08 07:25:37;;;;;;;6.03;1.00;;;24.10;99.90;;;24.74;52.53;101105.94;5012054;28;20040;-77
2021/08/08 07:28:03;;;;;;;2.70;1.15;;;24.40;99.90;;;24.82;51.60;101078.25;5028724;28;20022;-76
2021/08/08 07:30:29;;;;;;;2.65;1.15;;;24.40;99.90;;;24.86;51.03;101070.69;5020191;28;20027;-76
2021/08/08 07:32:56;;;;;;;5.80;1.20;;;24.40;99.90;;;24.72;51.47;101045.19;5029052;28;20033;-76
2021/08/08 07:35:22;;;;;;;3.38;1.17;;;24.60;99.90;;;24.97;51.42;101052.44;5026883;28;20035;-76
2021/08/08 07:37:48;;;;;;;4.13;1.60;;;24.40;99.90;;;24.45;52.46;100992.25;5009598;28;20406;-76
2021/08/08 07:40:14;;;;;;;3.80;1.10;;;24.20;99.90;;;24.56;51.80;100994.75;5031634;28;20031;-76
2021/08/08 07:42:48;;;;;;;1.73;1.10;;;24.10;99.90;;;24.66;51.47;101011.63;5029720;28;20124;-76
2021/08/08 07:45:15;;;;;;;4.45;1.20;;;24.10;99.90;;;24.31;52.06;100948.75;5032213;28;20048;-76
2021/08/08 07:47:41;;;;;;;4.53;1.10;;;24.10;99.90;;;24.54;52.68;100981.44;5022476;28;20552;-77
2021/08/08 07:50:08;;;;;;;3.13;0.93;;;24.00;99.90;;;24.23;52.70;100955.91;5014239;28;20029;-76
2021/08/08 07:52:38;;;;;;;3.33;0.95;;;24.10;99.90;;;24.51;52.01;100964.75;5031956;28;20028;-76
2021/08/08 07:55:06;;;;;;;4.90;1.10;;;24.70;99.90;;;25.20;50.21;101032.25;5044900;28;20020;-76
2021/08/08 07:57:33;;;;;;;2.08;0.90;;;24.80;99.90;;;25.40;49.42;101044.50;5023174;28;20037;-77
2021/08/08 07:59:59;;;;;;;2.53;1.00;;;25.10;99.90;;;25.71;48.80;101049.34;5021727;28;20046;-76
2021/08/08 08:02:26;;;;;;;4.55;1.20;;;25.40;99.90;;;26.50;47.85;101118.25;5043437;28;20048;-76
2021/08/08 08:04:52;;;;;;;5.57;0.93;;;25.60;99.90;;;26.14;47.86;101040.22;5018134;28;20048;-76
2021/08/08 08:07:18;;;;;;;4.57;1.15;;;25.40;99.90;;;25.89;47.56;101014.19;5027876;28;20033;-76
2021/08/08 08:09:44;;;;;;;6.15;1.00;;;25.40;99.90;;;25.96;47.15;101005.28;5035262;28;20041;-76
2021/08/08 08:12:10;;;;;;;3.00;0.80;;;25.50;99.90;;;25.73;48.59;100996.09;5016620;28;20040;-76
2021/08/08 08:14:37;;;;;;;2.22;0.95;;;25.60;99.90;;;25.38;49.04;100936.84;5014678;28;20098;-76
2021/08/08 08:17:04;;;;;;;2.88;1.10;;;24.60;99.90;;;24.65;52.10;100909.53;5009466;28;21163;-76
2021/08/08 08:19:32;;;;;;;1.63;1.02;;;25.00;99.90;;;25.30;48.96;100971.00;5028614;28;20396;-76
2021/08/08 08:22:02;;;;;;;5.70;1.15;;;25.00;99.90;;;24.76;50.66;100895.78;5045878;28;20048;-76
2021/08/08 08:24:31;;;;;;;2.15;1.00;;;24.10;99.90;;;23.64;54.28;100821.09;5019254;28;20037;-76
2021/08/08 08:26:57;;;;;;;5.50;1.02;;;24.40;99.90;;;24.36;52.74;100881.88;5037156;28;20056;-77
2021/08/08 08:29:24;;;;;;;4.88;1.33;;;24.10;99.90;;;23.29;55.10;100775.25;5010100;28;20071;-76
2021/08/08 08:31:51;;;;;;;4.60;1.05;;;23.10;99.90;;;22.52;58.06;100749.69;5043583;28;20036;-76
2021/08/08 08:34:19;;;;;;;2.00;0.88;;;23.00;99.90;;;22.73;56.81;100770.91;5024183;28;20021;-76
2021/08/08 08:36:45;;;;;;;4.28;1.02;;;23.20;99.90;;;22.59;56.41;100750.81;5018822;28;20029;-76
2021/08/08 08:39:11;;;;;;;3.20;1.20;;;23.10;99.90;;;22.82;55.79;100766.50;5011030;28;20611;-76
2021/08/08 08:41:38;;;;;;;3.88;1.20;;;23.30;99.90;;;22.78;54.43;100767.78;5017547;28;20021;-76
2021/08/08 08:44:04;;;;;;;3.75;1.20;;;23.10;99.90;;;22.47;54.89;100738.56;5027993;28;20552;-76
2021/08/08 08:46:33;;;;;;;4.95;1.40;;;22.40;99.90;;;21.29;58.21;100654.06;5032797;28;20040;-76
2021/08/08 08:48:59;;;;;;;6.03;1.20;;;21.70;99.90;;;20.69;59.69;100630.97;5007209;28;20033;-76
2021/08/08 08:51:38;;;;;;;4.20;1.00;;;21.40;99.90;;;20.55;60.67;100633.16;5023246;28;20068;-76
2021/08/08 08:54:05;;;;;;;1.48;0.70;;;21.70;99.90;;;21.54;56.98;100762.47;5028622;28;20048;-76
2021/08/08 08:56:31;;;;;;;4.78;0.90;;;22.30;99.90;;;21.45;55.81;100717.81;5042027;28;20029;-77
2021/08/08 08:58:58;;;;;;;2.67;1.02;;;21.80;99.90;;;20.97;57.53;100671.28;5024538;28;20047;-75
2021/08/08 09:01:24;;;;;;;2.45;0.88;;;21.80;99.90;;;21.24;56.79;100702.69;4993427;28;20033;-76
2021/08/08 09:03:55;;;;;;;6.65;0.80;;;22.30;99.90;;;21.92;54.65;100777.69;4986699;28;20044;-76
2021/08/08 09:06:22;;;;;;;3.40;0.75;;;22.90;99.90;;;22.51;53.16;100823.97;5006962;28;20094;-76
2021/08/08 09:08:49;;;;;;;3.47;0.90;;;23.30;99.90;;;22.87;51.94;100850.09;4975168;28;20083;-75
2021/08/08 09:11:23;;;;;;;1.85;0.70;;;23.70;99.90;;;23.17;50.99;100853.50;5011897;28;20037;-76
2021/08/08 09:13:54;;;;;;;2.15;0.60;;;24.00;99.90;;;23.31;49.79;100861.91;5029664;28;20025;-76
2021/08/08 09:16:27;;;;;;;4.63;0.70;;;23.80;99.90;;;23.29;50.04;100841.56;5021986;28;20040;-76
2021/08/08 09:18:57;;;;;;;2.00;0.52;;;23.50;99.90;;;22.30;51.53;100960.97;4983442;28;20029;-76
2021/08/08 09:21:36;;;;;;;2.97;0.70;;;22.40;99.90;;;21.18;54.75;100855.84;5014130;28;20029;-75
2021/08/08 09:24:32;;;;;;;3.33;0.70;;;21.60;99.90;;;20.42;57.12;100756.44;5016747;28;20025;-76
2021/08/08 09:27:10;;;;;;;1.77;0.80;;;21.60;99.90;;;21.00;56.59;100838.78;5021592;28;20503;-76
2021/08/08 09:30:11;;;;;;;4.40;0.82;;;21.60;99.90;;;21.22;55.79;100865.31;5000000;28;21473;-77
2021/08/08 09:33:29;;;;;;;7.57;0.70;;;22.60;99.90;;;22.27;52.21;100955.91;4989437;28;20451;-77
2021/08/08 09:35:56;;;;;;;2.58;0.50;;;22.70;99.90;;;21.97;52.76;100902.41;5003445;28;20039;-76
2021/08/08 09:38:57;;;;;;;1.98;0.55;;;22.30;99.90;;;21.68;54.12;100873.72;4993704;28;20056;-76
2021/08/08 09:41:44;;;;;;;2.58;0.80;;;23.10;99.90;;;22.93;51.59;101002.56;5004729;28;20036;-75
2021/08/08 09:44:58;;;;;;;3.33;0.63;;;23.20;99.90;;;22.25;52.81;100903.41;4991242;28;20083;-77
2021/08/08 09:48:04;;;;;;;2.88;0.90;;;22.60;99.90;;;21.67;53.84;100847.94;4994851;28;20028;-77
2021/08/08 09:50:44;;;;;;;1.63;0.80;;;22.00;99.90;;;20.92;56.96;100793.94;4999013;28;20037;-76
2021/08/08 09:53:53;;;;;;;5.97;1.15;;;21.40;99.90;;;20.26;59.78;100732.88;4970034;28;20075;-77
2021/08/08 09:57:01;;;;;;;3.22;1.27;;;21.00;99.90;;;20.16;61.23;100748.03;4985888;28;20071;-76
2021/08/08 10:00:34;;;;;;;5.47;0.50;;;20.90;99.90;;;19.85;62.73;100732.81;5004464;28;20083;-77
2021/08/08 10:03:08;;;;;;;0.95;0.50;;;20.50;99.90;;;19.38;65.02;100718.09;5009628;28;20087;-76
2021/08/08 10:06:14;;;;;;;1.80;0.68;;;20.00;99.90;;;19.17;67.56;100704.72;4996136;28;20052;-76
2021/08/08 10:09:38;;;;;;;3.40;1.10;;;20.30;99.90;;;19.70;66.03;100775.97;4996614;28;20098;-76
2021/08/08 10:13:02;;;;;;;5.97;1.10;;;20.40;99.90;;;19.83;64.73;100774.84;4993607;28;20034;-76
2021/08/08 10:15:29;;;;;;;4.60;1.10;;;21.20;99.90;;;20.62;62.52;100849.19;5012743;28;20036;-76
2021/08/08 10:18:03;;;;;;;3.83;0.82;;;21.00;99.90;;;20.11;63.99;100855.34;5007446;28;20394;-75
2021/08/08 10:20:33;;;;;;;3.13;0.90;;;20.60;99.90;;;19.76;65.54;100804.84;4987453;28;20040;-76